Time;durP1;ratioP1;P1;durP2;ratioP2;P2;SDS_P1;SDS_P2;PMS_P1;PMS_P2;Temp;Humidity;BMP_temperature;BMP_pressure;BME280_temperature;BME280_humidity;BME280_pressure;Samples;Min_cycle;Max_cycle;Signal;HPM_P1;HPM_P2
2021/01/24 00:01:58;;;;;;;24.05;9.45;;;;;;;1.41;74.58;98827.25;4414333;32;20085;-75
2021/01/24 00:04:24;;;;;;;16.80;7.97;;;;;;;1.44;74.35;98832.69;4412390;32;20073;-76
2021/01/24 00:06:50;;;;;;;19.02;8.27;;;;;;;1.43;74.45;98827.59;4414029;32;20471;-77
2021/01/24 00:09:16;;;;;;;20.33;8.30;;;;;;;1.48;74.51;98835.41;4417249;32;20030;-77
2021/01/24 00:11:42;;;;;;;18.48;7.72;;;;;;;1.46;74.41;98833.06;4416683;32;20068;-77
2021/01/24 00:14:08;;;;;;;20.85;7.75;;;;;;;1.44;74.63;98834.72;4415792;32;20087;-77
2021/01/24 00:16:34;;;;;;;21.02;8.43;;;;;;;1.39;74.50;98832.41;4414881;32;20099;-77
2021/01/24 00:19:00;;;;;;;16.77;7.65;;;;;;;1.40;74.24;98831.19;4412368;32;20110;-76
2021/01/24 00:21:26;;;;;;;17.83;7.78;;;;;;;1.47;74.15;98831.84;4412796;32;20498;-75
2021/01/24 00:23:51;;;;;;;19.35;8.10;;;;;;;1.47;74.33;98829.09;4415673;32;20025;-76
2021/01/24 00:26:17;;;;;;;20.37;8.30;;;;;;;1.46;74.67;98822.00;4415221;32;20106;-78
2021/01/24 00:28:43;;;;;;;16.67;7.40;;;;;;;1.50;74.38;98825.47;4415741;32;20050;-75
2021/01/24 00:31:09;;;;;;;23.52;8.60;;;;;;;1.53;74.19;98818.28;4410601;32;20097;-76
2021/01/24 00:33:34;;;;;;;16.27;7.70;;;;;;;1.53;74.00;98821.84;4416347;32;20064;-76
2021/01/24 00:36:00;;;;;;;15.23;7.78;;;;;;;1.59;74.23;98825.69;4414310;32;20044;-76
2021/01/24 00:38:26;;;;;;;21.85;8.82;;;;;;;1.61;73.83;98833.59;4412871;32;20089;-77
2021/01/24 00:40:52;;;;;;;20.65;8.55;;;;;;;1.69;73.90;98830.25;4414191;32;20089;-76
2021/01/24 00:43:18;;;;;;;18.30;8.65;;;;;;;1.72;73.88;98829.41;4416019;32;20056;-77
2021/01/24 00:45:45;;;;;;;23.27;7.70;;;;;;;1.65;73.48;98817.66;4415352;32;20517;-76
2021/01/24 00:48:11;;;;;;;13.48;7.57;;;;;;;1.69;73.47;98818.41;4412799;32;20077;-77
2021/01/24 00:50:36;;;;;;;16.52;8.13;;;;;;;1.65;73.57;98821.22;4413005;32;20057;-76
2021/01/24 00:53:02;;;;;;;17.73;8.38;;;;;;;1.67;73.50;98821.59;4414965;32;20076;-76
2021/01/24 00:55:28;;;;;;;17.42;8.32;;;;;;;1.67;73.83;98827.13;4416144;32;20058;-77
2021/01/24 00:57:54;;;;;;;18.92;8.07;;;;;;;1.68;73.39;98816.81;4418260;32;20102;-75
2021/01/24 01:00:20;;;;;;;19.30;7.72;;;;;;;1.63;73.13;98809.78;4419764;32;20078;-77
2021/01/24 01:02:46;;;;;;;19.45;7.10;;;;;;;1.57;74.16;98811.47;4419684;32;20045;-76
2021/01/24 01:05:12;;;;;;;19.23;7.18;;;;;;;1.49;74.40;98818.38;4418854;32;20054;-76
2021/01/24 01:07:38;;;;;;;19.80;7.47;;;;;;;1.54;74.54;98825.41;4419946;32;20037;-76
2021/01/24 01:10:05;;;;;;;16.37;7.28;;;;;;;1.53;74.04;98827.37;4419179;32;20061;-77
2021/01/24 01:12:31;;;;;;;19.75;8.07;;;;;;;1.59;73.87;98825.69;4414608;32;20095;-77
2021/01/24 01:14:57;;;;;;;19.65;7.37;;;;;;;1.45;74.06;98825.19;4419349;32;20476;-76
2021/01/24 01:17:22;;;;;;;15.70;6.93;;;;;;;1.55;74.17;98824.19;4414357;32;20046;-76
2021/01/24 01:19:48;;;;;;;18.23;7.37;;;;;;;1.56;73.89;98817.44;4418015;32;20069;-77
2021/01/24 01:22:14;;;;;;;19.90;7.28;;;;;;;1.48;74.13;98824.34;4416451;32;20102;-77
2021/01/24 01:24:39;;;;;;;18.77;7.78;;;;;;;1.57;73.96;98819.03;4417179;32;20124;-76
2021/01/24 01:27:05;;;;;;;18.87;8.20;;;;;;;1.55;73.59;98826.97;4418486;32;20409;-76
2021/01/24 01:29:31;;;;;;;21.50;7.78;;;;;;;1.54;73.50;98815.09;4418325;32;20406;-78
2021/01/24 01:31:56;;;;;;;15.02;6.55;;;;;;;1.48;73.66;98821.56;4418062;32;20063;-76
2021/01/24 01:34:22;;;;;;;19.75;7.18;;;;;;;1.38;73.94;98828.09;4416631;32;20030;-78
2021/01/24 01:36:48;;;;;;;14.10;5.82;;;;;;;1.32;74.54;98827.78;4415280;32;20033;-77
2021/01/24 01:39:14;;;;;;;11.15;5.32;;;;;;;1.34;73.62;98832.88;4413625;32;20037;-76
2021/01/24 01:41:40;;;;;;;14.25;6.15;;;;;;;1.31;73.83;98837.31;4416509;32;20078;-77
2021/01/24 01:44:06;;;;;;;14.85;6.40;;;;;;;1.22;74.12;98827.97;4418789;32;20518;-76
2021/01/24 01:46:32;;;;;;;14.40;5.53;;;;;;;1.27;74.28;98836.59;4417998;32;20208;-75
2021/01/24 01:48:58;;;;;;;16.25;6.47;;;;;;;1.33;74.38;98842.41;4417285;32;20046;-76
2021/01/24 01:51:25;;;;;;;15.98;6.45;;;;;;;1.37;74.29;98841.16;4417110;32;20069;-75
2021/01/24 01:53:52;;;;;;;16.25;7.00;;;;;;;1.33;74.81;98839.66;4415652;32;20541;-76
2021/01/24 01:56:18;;;;;;;20.23;7.82;;;;;;;1.38;74.93;98844.72;4416557;32;20096;-77
2021/01/24 01:58:44;;;;;;;14.80;6.43;;;;;;;1.43;75.09;98849.75;4417634;32;20406;-77
2021/01/24 02:01:25;;;;;;;15.77;6.55;;;;;;;1.45;74.88;98842.59;4418770;32;20511;-76
2021/01/24 02:06:34;;;;;;;17.85;6.90;;;;;;;2.03;73.40;98844.63;3988284;31;15764420;-76
2021/01/24 02:12:23;;;;;;;15.85;6.85;;;;;;;1.62;73.99;98833.16;3987337;32;15023425;-78
2021/01/24 02:15:11;;;;;;;19.43;7.03;;;;;;;1.60;74.64;98837.56;4443582;32;20086;-76
2021/01/24 02:17:44;;;;;;;15.80;6.57;;;;;;;1.65;74.80;98835.09;4443284;32;20026;-78
2021/01/24 02:20:18;;;;;;;19.33;7.68;;;;;;;1.67;74.70;98829.91;4433280;32;20021;-77
2021/01/24 02:22:47;;;;;;;13.65;6.85;;;;;;;1.69;74.20;98833.03;4444278;32;20336;-77
2021/01/24 02:28:11;;;;;;;19.12;7.30;;;;;;;1.66;73.85;98830.34;3993651;32;15025020;-76
2021/01/24 02:30:38;;;;;;;15.02;6.55;;;;;;;1.59;73.79;98828.47;4436926;32;20129;-75
2021/01/24 02:33:23;;;;;;;16.15;6.65;;;;;;;1.66;73.88;98825.56;4434079;32;20025;-75
2021/01/24 02:35:54;;;;;;;19.90;7.40;;;;;;;2.18;72.66;98827.69;4431143;32;20365;-76
2021/01/24 02:38:21;;;;;;;23.15;7.28;;;;;;;2.45;71.22;98819.97;4429616;32;20056;-76
2021/01/24 02:40:48;;;;;;;20.02;6.78;;;;;;;2.49;70.26;98826.22;4431001;32;20320;-76
2021/01/24 02:43:15;;;;;;;16.17;5.87;;;;;;;2.15;71.20;98817.47;4424446;32;20374;-75
2021/01/24 02:45:45;;;;;;;11.35;5.18;;;;;;;1.95;72.05;98826.56;4428560;32;20049;-74
2021/01/24 02:48:14;;;;;;;14.73;5.37;;;;;;;2.00;72.18;98822.53;4428139;32;20063;-76
2021/01/24 02:50:41;;;;;;;16.20;5.70;;;;;;;1.97;71.62;98826.91;4430183;32;20332;-77
2021/01/24 02:53:08;;;;;;;15.90;6.07;;;;;;;2.03;71.09;98835.53;4423190;32;20049;-76
2021/01/24 02:55:34;;;;;;;12.23;5.50;;;;;;;1.88;72.02;98837.78;4437432;32;20083;-74
2021/01/24 02:58:00;;;;;;;15.60;5.53;;;;;;;1.93;72.21;98833.75;4427451;32;20027;-76
2021/01/24 03:00:27;;;;;;;17.20;6.45;;;;;;;1.94;72.56;98827.75;4424701;32;20034;-76
2021/01/24 03:02:53;;;;;;;19.92;6.78;;;;;;;1.91;72.57;98830.62;4425116;32;20084;-76
2021/01/24 03:05:19;;;;;;;15.50;6.15;;;;;;;1.86;72.95;98823.59;4426393;32;20458;-76
2021/01/24 03:07:46;;;;;;;14.27;6.62;;;;;;;1.97;73.04;98824.12;4428756;32;20041;-76
2021/01/24 03:10:13;;;;;;;19.77;7.10;;;;;;;2.08;72.80;98818.38;4419369;32;20064;-75
2021/01/24 03:13:17;;;;;;;19.35;7.93;;;;;;;2.07;72.83;98833.47;4424103;32;20076;-77
2021/01/24 03:15:44;;;;;;;20.40;7.40;;;;;;;2.11;72.73;98828.63;4428464;32;20089;-76
2021/01/24 03:18:15;;;;;;;20.23;7.57;;;;;;;2.21;72.24;98833.16;4422010;32;20058;-76
2021/01/24 03:20:43;;;;;;;23.40;9.20;;;;;;;2.18;72.75;98822.94;4426160;32;20061;-76
2021/01/24 03:23:09;;;;;;;18.30;7.80;;;;;;;2.37;72.55;98819.34;4429867;32;20076;-76
2021/01/24 03:25:37;;;;;;;17.05;7.72;;;;;;;2.40;72.41;98812.94;4421787;32;20393;-76
2021/01/24 03:28:04;;;;;;;22.77;7.95;;;;;;;2.50;71.92;98813.91;4420819;32;20077;-76
2021/01/24 03:30:29;;;;;;;16.60;6.82;;;;;;;2.58;71.77;98818.84;4422835;32;20064;-75
2021/01/24 03:32:56;;;;;;;17.92;8.52;;;;;;;2.65;71.40;98818.72;4423308;32;20097;-76
2021/01/24 03:35:22;;;;;;;17.83;7.62;;;;;;;2.73;71.26;98819.31;4427693;32;20086;-76
2021/01/24 03:37:48;;;;;;;23.52;8.70;;;;;;;2.79;70.64;98828.72;4424352;32;20179;-76
2021/01/24 03:40:13;;;;;;;25.90;8.43;;;;;;;2.72;70.69;98817.75;4416138;32;20064;-76
2021/01/24 03:42:39;;;;;;;21.95;7.53;;;;;;;2.72;70.86;98817.75;4409877;32;20404;-75
2021/01/24 03:45:05;;;;;;;23.02;8.10;;;;;;;2.68;71.38;98814.28;4414832;32;20066;-75
2021/01/24 03:47:31;;;;;;;21.70;8.57;;;;;;;2.60;71.33;98816.44;4415779;32;20046;-77
2021/01/24 03:49:57;;;;;;;19.30;7.97;;;;;;;2.60;71.44;98827.53;4411206;32;20142;-76
2021/01/24 03:52:23;;;;;;;24.40;8.68;;;;;;;2.64;71.04;98831.00;4413503;32;20068;-77
2021/01/24 03:54:48;;;;;;;21.77;8.88;;;;;;;2.62;71.23;98818.78;4414355;32;20030;-76
2021/01/24 03:57:14;;;;;;;22.98;9.23;;;;;;;2.62;71.41;98816.00;4417151;32;20110;-75
2021/01/24 03:59:39;;;;;;;23.65;9.23;;;;;;;2.60;71.24;98816.44;4417836;32;20501;-75
2021/01/24 04:02:05;;;;;;;23.50;9.48;;;;;;;2.60;71.37;98827.53;4414302;32;20231;-77
2021/01/24 04:04:31;;;;;;;21.20;9.20;;;;;;;2.62;71.26;98827.91;4416283;32;20716;-76
2021/01/24 04:06:56;;;;;;;22.58;9.98;;;;;;;2.67;71.54;98823.84;4415064;32;21626;-76
2021/01/24 04:09:22;;;;;;;22.55;9.07;;;;;;;2.72;71.55;98817.75;4415233;32;20054;-77
2021/01/24 04:11:48;;;;;;;25.90;8.60;;;;;;;2.78;71.31;98818.78;4414065;32;20097;-76
2021/01/24 04:14:14;;;;;;;25.70;9.65;;;;;;;2.80;71.15;98821.94;4412294;32;20094;-77
2021/01/24 04:16:40;;;;;;;26.58;10.68;;;;;;;2.76;71.21;98819.22;4414083;32;20410;-75
2021/01/24 04:19:05;;;;;;;25.02;10.15;;;;;;;2.76;71.26;98818.47;4411193;32;20068;-76
2021/01/24 04:21:31;;;;;;;26.90;9.43;;;;;;;2.79;71.37;98807.25;4414928;32;20412;-76
2021/01/24 04:23:57;;;;;;;25.37;10.23;;;;;;;2.74;71.22;98805.00;4415725;32;20057;-76
2021/01/24 04:26:22;;;;;;;23.17;9.60;;;;;;;2.70;71.64;98811.84;4416077;32;20418;-75
2021/01/24 04:28:48;;;;;;;23.00;9.95;;;;;;;2.61;72.37;98811.66;4414681;32;20374;-76
2021/01/24 04:31:15;;;;;;;23.33;8.63;;;;;;;2.66;72.60;98811.13;4416332;32;20076;-76
2021/01/24 04:33:41;;;;;;;25.70;9.85;;;;;;;2.64;72.37;98799.69;4419029;32;20085;-77
2021/01/24 04:36:07;;;;;;;22.45;9.00;;;;;;;2.65;72.48;98798.47;4410416;32;20823;-78
2021/01/24 04:38:33;;;;;;;26.90;9.80;;;;;;;2.53;72.74;98804.72;4413981;32;20038;-76
2021/01/24 04:40:59;;;;;;;22.77;9.23;;;;;;;2.68;72.80;98800.38;4410194;32;20085;-75
2021/01/24 04:43:25;;;;;;;24.45;9.38;;;;;;;2.71;72.51;98793.97;4413166;32;20037;-75
2021/01/24 04:45:54;;;;;;;24.27;8.93;;;;;;;2.74;72.73;98799.47;4415142;32;20052;-76
2021/01/24 04:48:20;;;;;;;27.15;9.77;;;;;;;2.83;72.64;98801.62;4409074;32;20046;-76
2021/01/24 04:50:46;;;;;;;28.25;10.10;;;;;;;2.90;72.29;98791.13;4409797;32;20060;-76
2021/01/24 04:53:13;;;;;;;25.48;9.35;;;;;;;2.74;72.20;98790.34;4415590;32;20145;-77
2021/01/24 04:55:40;;;;;;;25.90;9.68;;;;;;;2.77;72.26;98786.69;4416877;32;20046;-75
2021/01/24 04:58:07;;;;;;;26.10;9.88;;;;;;;2.75;72.78;98780.78;4414407;32;20098;-76
2021/01/24 05:00:32;;;;;;;27.85;10.20;;;;;;;2.78;72.72;98785.47;4415622;32;20037;-75
2021/01/24 05:02:58;;;;;;;23.08;9.25;;;;;;;2.81;72.75;98802.06;4414744;32;20098;-75
2021/01/24 05:05:24;;;;;;;24.60;9.95;;;;;;;2.85;72.37;98799.97;4416039;32;20482;-76
2021/01/24 05:07:59;;;;;;;25.30;9.60;;;;;;;2.83;71.63;98802.41;4414447;32;20080;-75
2021/01/24 05:10:29;;;;;;;26.70;9.82;;;;;;;2.93;71.69;98812.47;4409816;32;20042;-76
2021/01/24 05:12:56;;;;;;;28.65;10.15;;;;;;;2.92;71.93;98799.03;4417351;32;20454;-75
2021/01/24 05:15:23;;;;;;;24.60;10.00;;;;;;;2.83;72.45;98807.19;4413086;32;20073;-76
2021/01/24 05:17:51;;;;;;;22.23;10.02;;;;;;;2.88;72.14;98806.66;4411621;32;20046;-76
2021/01/24 05:20:21;;;;;;;23.58;9.48;;;;;;;2.92;72.13;98797.03;4409446;32;20037;-76
2021/01/24 05:22:47;;;;;;;27.50;9.50;;;;;;;2.93;72.51;98801.38;4415203;32;20106;-75
2021/01/24 05:25:17;;;;;;;24.00;9.82;;;;;;;2.89;72.68;98797.09;4418171;32;20052;-76
2021/01/24 05:27:43;;;;;;;28.77;10.18;;;;;;;2.85;72.52;98799.97;4411228;32;20053;-75
2021/01/24 05:30:12;;;;;;;23.98;9.95;;;;;;;2.79;73.03;98795.38;4408974;32;20094;-76
2021/01/24 05:32:44;;;;;;;26.75;10.63;;;;;;;2.87;72.72;98791.19;4414327;32;20107;-77
2021/01/24 05:35:11;;;;;;;24.55;10.30;;;;;;;2.93;72.68;98787.47;4412263;32;20089;-75
2021/01/24 05:37:38;;;;;;;23.83;10.60;;;;;;;2.94;72.92;98789.03;4411415;32;20038;-75
2021/01/24 05:40:07;;;;;;;27.90;10.95;;;;;;;2.93;72.46;98784.69;4406345;32;20099;-77
2021/01/24 05:42:35;;;;;;;23.92;9.57;;;;;;;2.93;72.20;98783.91;4413268;32;20045;-75
2021/01/24 05:45:01;;;;;;;20.48;9.15;;;;;;;2.97;72.54;98790.94;4409906;32;20022;-76
2021/01/24 05:47:32;;;;;;;29.23;10.82;;;;;;;3.01;72.02;98788.09;4414235;32;20072;-76
2021/01/24 05:49:58;;;;;;;25.33;10.52;;;;;;;3.06;71.69;98784.75;4414004;32;20111;-78
2021/01/24 05:52:26;;;;;;;23.33;9.27;;;;;;;2.98;71.75;98788.94;4410758;32;20072;-76
2021/01/24 05:54:51;;;;;;;24.37;10.45;;;;;;;3.01;72.31;98791.63;4408888;32;20045;-77
2021/01/24 05:57:22;;;;;;;21.42;9.50;;;;;;;2.95;71.93;98775.94;4410628;32;20129;-76
2021/01/24 05:59:51;;;;;;;22.33;8.82;;;;;;;3.01;72.07;98774.94;4410846;32;20061;-76
2021/01/24 06:02:19;;;;;;;28.27;10.23;;;;;;;2.98;72.57;98759.16;4411090;32;20111;-77
2021/01/24 06:04:45;;;;;;;26.35;10.02;;;;;;;3.01;72.18;98769.41;4411773;32;20117;-77
2021/01/24 06:07:12;;;;;;;27.75;9.95;;;;;;;3.01;72.52;98766.63;4415766;32;20117;-76
2021/01/24 06:09:38;;;;;;;30.12;10.77;;;;;;;3.05;71.99;98772.09;4414621;32;20390;-75
2021/01/24 06:12:07;;;;;;;26.05;10.35;;;;;;;3.01;72.33;98771.41;4415043;32;20072;-76
2021/01/24 06:14:34;;;;;;;31.05;10.77;;;;;;;3.08;72.31;98765.66;4416082;32;20050;-75
2021/01/24 06:17:09;;;;;;;22.67;9.70;;;;;;;3.10;72.17;98763.25;4417543;32;20026;-77
2021/01/24 06:19:41;;;;;;;30.80;10.60;;;;;;;3.12;72.09;98763.56;4404363;32;20089;-77
2021/01/24 06:22:14;;;;;;;24.70;9.98;;;;;;;3.09;72.53;98756.09;4408904;32;20050;-77
2021/01/24 06:24:45;;;;;;;26.58;10.52;;;;;;;3.10;72.34;98757.69;4416248;32;20119;-76
2021/01/24 06:27:15;;;;;;;26.80;10.25;;;;;;;3.11;71.94;98746.13;4412173;32;20085;-75
2021/01/24 06:29:45;;;;;;;25.42;10.55;;;;;;;3.18;71.78;98759.84;4410150;32;20406;-75
2021/01/24 06:32:26;;;;;;;21.40;9.07;;;;;;;3.15;71.48;98752.38;4408311;32;20030;-77
2021/01/24 06:34:54;;;;;;;26.67;9.90;;;;;;;3.20;71.49;98756.63;4413666;32;20034;-75
2021/01/24 06:37:21;;;;;;;28.40;10.20;;;;;;;3.20;71.82;98753.84;4415874;32;20418;-76
2021/01/24 06:39:50;;;;;;;20.55;9.38;;;;;;;3.12;71.62;98755.22;4411611;32;20422;-77
2021/01/24 06:48:04;;;;;;;27.52;10.32;;;;;;;3.59;70.86;98745.25;3988527;32;15023893;-75
2021/01/24 06:50:47;;;;;;;25.52;10.85;;;;;;;3.59;70.86;98745.25;4440128;32;20049;-76
2021/01/24 06:53:28;;;;;;;25.88;11.05;;;;;;;3.14;71.33;98750.81;4438928;32;20107;-75
2021/01/24 06:58:34;;;;;;;23.65;10.13;;;;;;;3.59;71.32;98759.13;3984996;32;15024127;-78
2021/01/24 07:06:58;;;;;;;26.52;10.38;;;;;;;3.69;71.19;98766.41;3988370;32;15023422;-76
2021/01/24 07:12:03;;;;;;;28.27;11.60;;;;;;;3.48;71.14;98764.19;3986888;31;15709886;-76
2021/01/24 07:17:14;;;;;;;25.27;10.93;;;;;;;3.63;71.08;98763.38;4007611;31;15019878;-77
2021/01/24 07:19:45;;;;;;;25.05;10.32;;;;;;;3.63;71.08;98763.38;4435528;32;20400;-76
2021/01/24 07:22:11;;;;;;;23.58;10.65;;;;;;;3.25;71.98;98762.41;4449867;32;20073;-77
2021/01/24 07:24:38;;;;;;;31.45;10.63;;;;;;;3.17;71.96;98754.72;4451010;32;20067;-76
2021/01/24 07:27:07;;;;;;;27.17;10.85;;;;;;;3.15;71.92;98765.47;4456647;32;20017;-76
2021/01/24 07:29:34;;;;;;;27.87;11.00;;;;;;;3.12;72.13;98758.81;4450949;32;20079;-77
2021/01/24 07:32:05;;;;;;;27.08;10.13;;;;;;;3.06;72.21;98756.97;4456502;32;20120;-75
2021/01/24 07:34:31;;;;;;;24.30;9.93;;;;;;;3.07;72.39;98753.00;4468229;32;20103;-76
2021/01/24 07:36:56;;;;;;;25.02;9.70;;;;;;;2.96;72.42;98752.47;4454279;32;20176;-76
2021/01/24 07:39:22;;;;;;;33.95;11.57;;;;;;;2.86;73.01;98748.78;4469147;32;20104;-77
2021/01/24 07:41:50;;;;;;;27.77;11.00;;;;;;;2.81;72.84;98740.94;4455461;32;20029;-76
2021/01/24 07:44:16;;;;;;;29.17;10.80;;;;;;;2.78;72.77;98746.59;4468604;32;20144;-76
2021/01/24 07:46:43;;;;;;;29.87;11.20;;;;;;;2.73;72.61;98744.34;4466629;32;20087;-76
2021/01/24 07:49:08;;;;;;;28.15;11.43;;;;;;;2.69;72.91;98746.41;4467651;32;20066;-77
2021/01/24 07:51:34;;;;;;;32.53;11.48;;;;;;;2.59;73.11;98748.25;4469561;32;20437;-75
2021/01/24 07:54:01;;;;;;;32.35;11.88;;;;;;;2.51;73.87;98751.63;4470000;32;20059;-74
2021/01/24 07:56:27;;;;;;;28.42;10.45;;;;;;;2.51;73.79;98751.63;4470407;32;20103;-77
2021/01/24 07:58:53;;;;;;;32.35;13.50;;;;;;;2.42;74.33;98743.13;4452887;32;20049;-78
2021/01/24 08:01:19;;;;;;;33.50;11.85;;;;;;;2.43;74.81;98750.22;4462472;32;20029;-75
2021/01/24 08:03:47;;;;;;;27.40;11.15;;;;;;;2.47;74.74;98751.69;4473036;32;20055;-76
2021/01/24 08:06:13;;;;;;;31.12;11.23;;;;;;;2.47;74.64;98734.25;4468807;32;20073;-76
2021/01/24 08:08:40;;;;;;;28.73;10.55;;;;;;;2.54;73.70;98762.62;4469694;32;20072;-76
2021/01/24 08:11:06;;;;;;;31.92;10.77;;;;;;;2.58;73.98;98766.09;4469336;32;20110;-76
2021/01/24 08:13:33;;;;;;;27.50;10.93;;;;;;;2.58;73.58;98754.22;4469550;32;20088;-76
2021/01/24 08:16:02;;;;;;;31.92;11.05;;;;;;;2.58;74.03;98759.78;4467391;32;20049;-78
2021/01/24 08:18:28;;;;;;;27.70;11.25;;;;;;;2.58;73.76;98766.09;4468287;32;20088;-76
2021/01/24 08:20:55;;;;;;;26.00;10.52;;;;;;;2.59;73.97;98762.12;4467081;32;20025;-76
2021/01/24 08:23:24;;;;;;;27.27;10.00;;;;;;;2.55;73.65;98771.75;4470983;32;20041;-75
2021/01/24 08:25:51;;;;;;;27.35;11.10;;;;;;;2.45;74.24;98772.78;4467316;32;20025;-76
2021/01/24 08:28:18;;;;;;;43.28;11.98;;;;;;;2.32;74.88;98769.09;4459670;32;20485;-76
2021/01/24 08:30:44;;;;;;;31.50;11.63;;;;;;;2.31;75.01;98771.12;4457108;32;20030;-77
2021/01/24 08:33:11;;;;;;;30.42;12.07;;;;;;;2.38;75.26;98772.94;4456586;32;20071;-77
2021/01/24 08:35:37;;;;;;;32.88;11.57;;;;;;;2.48;74.38;98775.47;4458916;32;20045;-76
2021/01/24 08:38:03;;;;;;;35.40;12.43;;;;;;;2.47;73.67;98768.34;4454557;32;20058;-76
2021/01/24 08:40:31;;;;;;;35.30;12.02;;;;;;;2.57;73.98;98766.56;4452027;32;20025;-75
2021/01/24 08:42:56;;;;;;;33.22;11.85;;;;;;;2.64;73.87;98771.94;4447579;32;20076;-76
2021/01/24 08:45:27;;;;;;;33.20;11.88;;;;;;;2.64;73.79;98772.69;4441002;32;20068;-76
2021/01/24 08:47:56;;;;;;;31.23;11.23;;;;;;;2.71;73.93;98761.44;4455750;32;20083;-76
2021/01/24 08:50:22;;;;;;;31.90;11.48;;;;;;;2.79;73.75;98762.06;4442969;32;20063;-75
2021/01/24 08:52:57;;;;;;;31.98;11.18;;;;;;;2.68;73.34;98767.88;4455856;32;20045;-76
2021/01/24 08:55:23;;;;;;;33.55;11.32;;;;;;;2.85;73.58;98768.66;4461794;32;20422;-77
2021/01/24 08:57:49;;;;;;;34.78;11.65;;;;;;;2.76;72.98;98774.03;4456057;32;20068;-75
2021/01/24 09:00:16;;;;;;;28.98;12.20;;;;;;;2.81;73.20;98776.28;4450642;32;20045;-75
2021/01/24 09:02:42;;;;;;;33.35;13.15;;;;;;;2.88;73.31;98778.88;4457467;32;20098;-76
2021/01/24 09:05:13;;;;;;;33.33;12.57;;;;;;;2.90;73.01;98780.00;4460657;32;20390;-76
2021/01/24 09:12:56;;;;;;;30.62;11.68;;;;;;;3.43;72.53;98784.19;3989033;32;15027233;-76
2021/01/24 09:15:24;;;;;;;32.28;12.88;;;;;;;3.43;72.53;98784.19;4442100;32;20056;-76
2021/01/24 09:17:52;;;;;;;37.60;13.40;;;;;;;2.99;72.47;98776.63;4445575;32;20042;-78
2021/01/24 09:20:20;;;;;;;31.65;12.70;;;;;;;3.02;72.92;98770.19;4438887;32;20069;-77
2021/01/24 09:22:46;;;;;;;29.52;11.75;;;;;;;3.00;73.55;98781.72;4434619;32;20030;-76
2021/01/24 09:25:13;;;;;;;32.63;13.23;;;;;;;3.03;73.34;98772.53;4438539;32;20090;-77
2021/01/24 09:27:39;;;;;;;34.25;12.82;;;;;;;3.17;73.28;98768.63;4440498;32;20077;-76
2021/01/24 09:30:09;;;;;;;37.40;13.30;;;;;;;3.19;73.14;98771.75;4440328;32;20069;-75
2021/01/24 09:32:35;;;;;;;32.65;14.25;;;;;;;3.29;72.73;98774.25;4437157;32;20125;-75
2021/01/24 09:35:01;;;;;;;37.80;14.40;;;;;;;3.26;72.39;98777.91;4443395;32;20414;-75
2021/01/24 09:37:26;;;;;;;36.67;14.00;;;;;;;3.31;72.47;98776.56;4446223;32;20041;-76
2021/01/24 09:39:52;;;;;;;40.75;15.75;;;;;;;3.33;72.38;98780.50;4443118;32;20040;-76
2021/01/24 09:42:18;;;;;;;38.33;14.82;;;;;;;3.39;72.49;98783.50;4445010;32;20458;-75
2021/01/24 09:44:44;;;;;;;36.88;14.80;;;;;;;3.52;71.76;98776.78;4443825;32;20069;-76
2021/01/24 09:47:10;;;;;;;35.35;14.32;;;;;;;3.56;71.31;98766.34;4443792;32;20033;-76
2021/01/24 09:49:35;;;;;;;32.95;15.05;;;;;;;3.62;71.51;98767.38;4444592;32;20056;-75
2021/01/24 09:52:01;;;;;;;37.05;14.20;;;;;;;3.68;71.39;98781.50;4444178;32;20450;-75
2021/01/24 09:54:27;;;;;;;39.30;15.73;;;;;;;3.74;71.22;98777.75;4445588;32;20047;-77
2021/01/24 09:56:52;;;;;;;32.60;13.18;;;;;;;3.80;70.32;98772.44;4445875;32;20102;-76
2021/01/24 09:59:18;;;;;;;36.67;15.10;;;;;;;3.85;70.30;98771.91;4434383;32;20103;-76
2021/01/24 10:01:44;;;;;;;39.28;15.13;;;;;;;3.94;70.96;98772.81;4442595;32;20075;-75
2021/01/24 10:04:11;;;;;;;42.47;14.98;;;;;;;4.05;70.25;98775.28;4443602;32;20060;-76
2021/01/24 10:06:36;;;;;;;33.63;14.75;;;;;;;4.09;69.80;98773.94;4445137;32;20121;-75
2021/01/24 10:09:03;;;;;;;40.78;16.73;;;;;;;4.09;70.39;98773.94;4435654;32;20050;-76
2021/01/24 10:11:29;;;;;;;36.78;15.43;;;;;;;4.12;70.12;98775.09;4443003;32;20448;-77
2021/01/24 10:13:54;;;;;;;35.33;15.55;;;;;;;4.16;70.42;98764.63;4445509;32;20126;-77
2021/01/24 10:16:20;;;;;;;39.58;15.73;;;;;;;4.11;70.07;98765.94;4445665;32;20041;-77
2021/01/24 10:18:46;;;;;;;36.53;16.05;;;;;;;4.05;69.85;98766.91;4444729;32;20460;-75
2021/01/24 10:21:11;;;;;;;37.38;15.65;;;;;;;4.13;70.12;98774.66;4443345;32;20022;-75
2021/01/24 10:23:38;;;;;;;43.42;16.33;;;;;;;4.15;70.25;98766.63;4436715;32;20418;-77
2021/01/24 10:26:04;;;;;;;42.80;17.90;;;;;;;4.16;69.61;98775.75;4434220;32;20047;-76
2021/01/24 10:28:30;;;;;;;41.95;16.30;;;;;;;4.14;70.00;98786.53;4433992;32;20427;-76
2021/01/24 10:30:55;;;;;;;38.30;16.23;;;;;;;4.28;69.66;98786.12;4433592;32;20069;-76
2021/01/24 10:33:22;;;;;;;43.28;19.83;;;;;;;4.32;69.90;98786.78;4433176;32;20426;-76
2021/01/24 10:35:49;;;;;;;39.83;17.87;;;;;;;4.23;69.80;98786.66;4433938;32;20042;-75
2021/01/24 10:38:15;;;;;;;37.00;17.60;;;;;;;4.27;70.28;98779.00;4431600;32;20064;-76
2021/01/24 10:40:42;;;;;;;41.37;17.67;;;;;;;4.32;69.59;98781.22;4433387;32;20021;-77
2021/01/24 10:43:08;;;;;;;36.50;16.23;;;;;;;4.26;69.31;98769.06;4434211;32;20160;-76
2021/01/24 10:45:35;;;;;;;42.92;16.58;;;;;;;4.32;70.01;98780.47;4434641;32;20034;-76
2021/01/24 10:48:02;;;;;;;37.28;16.60;;;;;;;4.36;69.91;98783.91;4432095;32;20073;-77
2021/01/24 10:50:28;;;;;;;36.95;16.10;;;;;;;4.36;69.98;98778.34;4433796;32;20405;-75
2021/01/24 10:52:54;;;;;;;34.90;15.15;;;;;;;4.42;69.80;98782.13;4421354;32;20106;-77
2021/01/24 10:55:21;;;;;;;36.47;17.25;;;;;;;4.44;69.94;98774.87;4433999;32;20061;-75
2021/01/24 10:57:47;;;;;;;37.28;16.50;;;;;;;4.53;69.64;98775.00;4434972;32;20022;-76
2021/01/24 11:00:14;;;;;;;42.33;16.35;;;;;;;4.59;69.33;98778.81;4423311;32;20053;-76
2021/01/24 11:02:40;;;;;;;37.97;14.85;;;;;;;4.54;68.56;98775.81;4433955;32;20018;-77
2021/01/24 11:05:07;;;;;;;42.30;15.85;;;;;;;4.48;69.16;98777.56;4433198;32;20081;-76
2021/01/24 11:07:33;;;;;;;34.80;15.88;;;;;;;4.55;68.98;98775.34;4435218;32;20040;-75
2021/01/24 11:09:58;;;;;;;34.35;14.80;;;;;;;4.59;69.39;98778.00;4431940;32;20461;-76
2021/01/24 11:12:24;;;;;;;36.78;14.63;;;;;;;4.69;69.02;98786.03;4432880;32;20125;-75
2021/01/24 11:14:50;;;;;;;34.70;14.98;;;;;;;4.75;67.88;98778.69;4433854;32;20034;-76
2021/01/24 11:17:17;;;;;;;34.63;14.52;;;;;;;4.77;68.08;98786.59;4433744;32;20096;-76
2021/01/24 11:19:44;;;;;;;40.75;15.48;;;;;;;4.85;68.05;98777.53;4433738;32;20046;-76
2021/01/24 11:22:11;;;;;;;39.00;15.60;;;;;;;4.94;67.84;98776.88;4433746;32;20358;-76
2021/01/24 11:24:36;;;;;;;35.45;16.45;;;;;;;5.05;67.59;98774.50;4434678;32;20459;-76
2021/01/24 11:27:05;;;;;;;40.08;17.95;;;;;;;5.12;67.28;98777.84;4433985;32;20052;-76
2021/01/24 11:29:32;;;;;;;42.25;18.00;;;;;;;5.14;66.78;98771.81;4431352;32;20137;-77
2021/01/24 11:31:58;;;;;;;43.53;17.70;;;;;;;5.22;66.38;98776.69;4433491;32;20116;-77
2021/01/24 11:34:24;;;;;;;39.13;16.70;;;;;;;5.33;66.44;98759.59;4434153;32;20034;-76
2021/01/24 11:36:50;;;;;;;38.80;17.85;;;;;;;5.36;65.68;98750.34;4429898;32;20088;-75
2021/01/24 11:39:15;;;;;;;39.38;18.10;;;;;;;5.40;65.08;98749.00;4431839;32;20068;-77
2021/01/24 11:41:41;;;;;;;39.25;17.87;;;;;;;5.51;65.31;98760.56;4432316;32;20014;-77
2021/01/24 11:44:07;;;;;;;39.95;17.85;;;;;;;5.52;64.98;98776.06;4434127;32;20026;-77
2021/01/24 11:46:32;;;;;;;44.75;18.23;;;;;;;5.34;65.05;98781.47;4431499;32;20026;-77
2021/01/24 11:48:59;;;;;;;39.65;17.77;;;;;;;5.49;64.80;98779.75;4432857;32;20053;-76
2021/01/24 11:51:25;;;;;;;42.22;17.20;;;;;;;5.59;64.62;98764.66;4430998;32;20170;-77
2021/01/24 11:53:50;;;;;;;39.95;15.68;;;;;;;5.61;64.49;98748.25;4431507;32;20029;-77
2021/01/24 11:56:16;;;;;;;33.70;15.00;;;;;;;5.56;64.27;98740.44;4433577;32;20108;-76
2021/01/24 11:58:42;;;;;;;38.03;14.05;;;;;;;5.51;63.83;98735.47;4433755;32;20101;-77
2021/01/24 12:01:07;;;;;;;42.72;15.35;;;;;;;5.51;63.44;98754.97;4431485;32;20079;-77
2021/01/24 12:03:33;;;;;;;38.33;17.62;;;;;;;5.50;63.61;98764.56;4432230;32;20156;-77